createdAt,value
2023-04-22T00:01:56.694Z,101531.22
2023-04-22T00:04:25.172Z,101540.69
2023-04-22T00:06:53.045Z,101536.31
2023-04-22T00:09:20.802Z,101529.97
2023-04-22T00:11:48.587Z,101524.81
2023-04-22T00:14:16.355Z,101517.56
2023-04-22T00:16:44.165Z,101518.78
2023-04-22T00:19:13.693Z,101510.72
2023-04-22T00:21:41.421Z,101513.84
2023-04-22T00:24:09.285Z,101512.34
2023-04-22T00:26:37.014Z,101487.06
2023-04-22T00:29:04.804Z,101494.75
2023-04-22T00:31:32.611Z,101486.44
2023-04-22T00:34:00.381Z,101481.88
2023-04-22T00:36:29.493Z,101487.38
2023-04-22T00:38:57.500Z,101481.88
2023-04-22T00:41:26.174Z,101478.00
2023-04-22T00:43:54.569Z,101474.91
2023-04-22T00:46:23.106Z,101474.06
2023-04-22T00:48:51.813Z,101472.72
2023-04-22T00:51:19.622Z,101467.66
2023-04-22T00:53:48.887Z,101452.09
2023-04-22T00:56:16.822Z,101454.91
2023-04-22T00:58:45.301Z,101451.44
2023-04-22T01:01:13.519Z,101445.22
2023-04-22T01:03:41.922Z,101455.41
2023-04-22T01:06:09.939Z,101451.31
2023-04-22T01:08:37.784Z,101439.53
2023-04-22T01:11:06.986Z,101444.72
2023-04-22T01:13:35.991Z,101441.50
2023-04-22T01:16:04.009Z,101427.41
2023-04-22T01:18:32.415Z,101436.91
2023-04-22T01:21:00.152Z,101437.53
2023-04-22T01:23:29.618Z,101426.81
2023-04-22T01:25:58.287Z,101416.13
2023-04-22T01:28:26.889Z,101410.47
2023-04-22T01:30:54.854Z,101409.63
2023-04-22T01:33:23.124Z,101420.47
2023-04-22T01:35:50.971Z,101408.91
2023-04-22T01:38:18.855Z,101415.66
2023-04-22T01:40:47.951Z,101399.75
2023-04-22T01:43:15.653Z,101388.72
2023-04-22T01:45:43.591Z,101401.81
2023-04-22T01:48:12.185Z,101399.53
2023-04-22T01:50:39.992Z,101394.25
2023-04-22T01:53:08.784Z,101392.34
2023-04-22T01:55:37.370Z,101381.84
2023-04-22T01:58:06.638Z,101378.25
2023-04-22T02:00:34.418Z,101378.47
2023-04-22T02:03:02.268Z,101377.88
2023-04-22T02:05:30.199Z,101368.97
2023-04-22T02:07:57.914Z,101367.53
2023-04-22T02:10:25.670Z,101360.69
2023-04-22T02:12:53.405Z,101359.75
2023-04-22T02:15:22.890Z,101350.38
2023-04-22T02:17:50.637Z,101362.00
2023-04-22T02:20:18.531Z,101371.91
2023-04-22T02:22:46.414Z,101355.09
2023-04-22T02:25:14.312Z,101342.22
2023-04-22T02:27:42.100Z,101344.00
2023-04-22T02:30:10.731Z,101348.91
2023-04-22T02:32:40.360Z,101342.59
2023-04-22T02:35:08.774Z,101344.81
2023-04-22T02:37:36.518Z,101327.91
2023-04-22T02:40:04.809Z,101341.41
2023-04-22T02:42:32.560Z,101332.94
2023-04-22T02:45:00.357Z,101326.94
2023-04-22T02:47:28.146Z,101326.94
2023-04-22T02:49:57.306Z,101341.25
2023-04-22T02:52:25.064Z,101334.50
2023-04-22T02:54:52.768Z,101318.28
2023-04-22T02:57:21.025Z,101329.47
2023-04-22T02:59:48.757Z,101317.31
2023-04-22T03:02:16.592Z,101326.34
2023-04-22T03:04:44.357Z,101309.16
2023-04-22T03:07:13.476Z,101313.13
2023-04-22T03:09:41.601Z,101313.63
2023-04-22T03:12:10.757Z,101312.41
2023-04-22T03:14:38.537Z,101300.72
2023-04-22T03:17:06.316Z,101305.09
2023-04-22T03:19:34.023Z,101295.91
2023-04-22T03:22:01.724Z,101297.53
2023-04-22T03:24:30.851Z,101303.09
2023-04-22T03:26:58.581Z,101293.19
2023-04-22T03:29:26.303Z,101301.84
2023-04-22T03:31:54.008Z,101291.41
2023-04-22T03:34:22.053Z,101306.25
2023-04-22T03:36:49.780Z,101296.56
2023-04-22T03:39:17.507Z,101291.34
2023-04-22T03:41:46.582Z,101283.19
2023-04-22T03:44:14.333Z,101279.88
2023-04-22T03:46:42.077Z,101290.06
2023-04-22T03:49:10.310Z,101293.69
2023-04-22T03:51:38.086Z,101279.97
2023-04-22T03:54:06.033Z,101286.50
2023-04-22T03:56:33.755Z,101296.66
2023-04-22T03:59:02.827Z,101293.75
2023-04-22T04:01:30.564Z,101305.56
2023-04-22T04:03:58.512Z,101293.47
2023-04-22T04:06:26.664Z,101297.22
2023-04-22T04:08:54.446Z,101283.84
2023-04-22T04:11:22.143Z,101283.59
2023-04-22T04:13:49.890Z,101291.78
2023-04-22T04:16:19.044Z,101280.00
2023-04-22T04:18:46.907Z,101286.09
2023-04-22T04:21:14.624Z,101267.38
2023-04-22T04:23:42.551Z,101263.75
2023-04-22T04:26:10.990Z,101277.44
2023-04-22T04:28:38.754Z,101272.19
2023-04-22T04:31:06.566Z,101279.75
2023-04-22T04:33:37.062Z,101278.66
2023-04-22T04:36:05.325Z,101274.22
2023-04-22T04:38:34.254Z,101257.44
2023-04-22T04:41:02.146Z,101263.28
2023-04-22T04:43:30.381Z,101283.19
2023-04-22T04:45:58.118Z,101270.44
2023-04-22T04:48:27.058Z,101264.00
2023-04-22T04:50:56.694Z,101269.16
2023-04-22T04:53:24.457Z,101268.72
2023-04-22T04:55:52.181Z,101274.25
2023-04-22T04:58:19.962Z,101265.22
2023-04-22T05:00:48.071Z,101268.81
2023-04-22T05:03:15.937Z,101262.34
2023-04-22T05:05:43.984Z,101264.72
2023-04-22T05:08:13.097Z,101244.94
2023-04-22T05:10:42.413Z,101257.06
2023-04-22T05:13:10.134Z,101263.59
2023-04-22T05:15:37.970Z,101253.28
2023-04-22T05:18:06.332Z,101263.84
2023-04-22T05:20:36.186Z,101256.41
2023-04-22T05:23:04.119Z,101252.72
2023-04-22T05:25:33.298Z,101267.72
2023-04-22T05:28:01.088Z,101259.59
2023-04-22T05:30:28.845Z,101255.16
2023-04-22T05:32:56.615Z,101254.31
2023-04-22T05:35:24.365Z,101250.63
2023-04-22T05:37:52.119Z,101264.44
2023-04-22T05:40:19.901Z,101273.44
2023-04-22T05:42:48.976Z,101276.84
2023-04-22T05:45:17.741Z,101269.63
2023-04-22T05:47:45.766Z,101273.81
2023-04-22T05:50:13.590Z,101281.25
2023-04-22T05:52:41.419Z,101281.81
2023-04-22T05:55:09.550Z,101280.72
2023-04-22T05:57:37.273Z,101276.91
2023-04-22T06:00:07.602Z,101283.19
2023-04-22T06:02:35.494Z,101294.56
2023-04-22T06:05:03.685Z,101285.63
2023-04-22T06:07:31.591Z,101290.78
2023-04-22T06:10:04.515Z,101288.28
2023-04-22T06:12:34.117Z,101294.59
2023-04-22T06:15:01.896Z,101285.56
2023-04-22T06:17:31.012Z,101289.03
2023-04-22T06:19:58.733Z,101288.19
2023-04-22T06:22:26.483Z,101284.34
2023-04-22T06:24:54.222Z,101293.78
2023-04-22T06:27:21.963Z,101286.28
2023-04-22T06:29:49.680Z,101293.72
2023-04-22T06:32:17.436Z,101291.81
2023-04-22T06:34:46.538Z,101281.44
2023-04-22T06:37:14.297Z,101292.41
2023-04-22T06:39:42.324Z,101288.81
2023-04-22T06:42:10.248Z,101286.34
2023-04-22T06:44:38.032Z,101278.28
2023-04-22T06:47:05.995Z,101284.81
2023-04-22T06:49:35.589Z,101277.44
2023-04-22T06:52:04.828Z,101286.56
2023-04-22T06:54:32.940Z,101274.28
2023-04-22T06:57:00.686Z,101280.34
2023-04-22T06:59:28.451Z,101267.84
2023-04-22T07:01:56.261Z,101263.91
2023-04-22T07:04:24.078Z,101271.06
2023-04-22T07:06:52.139Z,101268.41
2023-04-22T07:09:21.333Z,101253.00
2023-04-22T07:11:49.079Z,101259.56
2023-04-22T07:14:16.802Z,101252.75
2023-04-22T07:16:44.563Z,101261.16
2023-04-22T07:19:12.476Z,101251.91
2023-04-22T07:21:40.169Z,101257.19
2023-04-22T07:24:11.841Z,101247.63
2023-04-22T07:26:41.522Z,101236.16
2023-04-22T07:29:09.633Z,101234.16
2023-04-22T07:31:37.700Z,101240.22
2023-04-22T07:34:05.514Z,101242.19
2023-04-22T07:36:33.780Z,101237.63
2023-04-22T07:39:01.579Z,101239.13
2023-04-22T07:41:29.316Z,101237.69
2023-04-22T07:43:58.420Z,101231.00
2023-04-22T07:46:26.283Z,101229.19
2023-04-22T07:48:54.447Z,101231.84
2023-04-22T07:51:22.176Z,101223.97
2023-04-22T07:53:49.880Z,101219.50
2023-04-22T07:56:17.653Z,101219.31
2023-04-22T07:58:45.474Z,101213.59
2023-04-22T08:01:14.640Z,101212.03
2023-04-22T08:03:42.581Z,101199.41
2023-04-22T08:06:10.543Z,101198.78
2023-04-22T08:08:38.268Z,101213.91
2023-04-22T08:11:06.141Z,101205.66
2023-04-22T08:13:33.892Z,101201.63
2023-04-22T08:16:03.085Z,101197.94
2023-04-22T08:18:32.426Z,101196.19
2023-04-22T08:21:00.279Z,101188.06
2023-04-22T08:23:28.144Z,101195.94
2023-04-22T08:25:55.926Z,101174.50
2023-04-22T08:28:23.788Z,101175.72
2023-04-22T08:30:51.888Z,101176.84
2023-04-22T08:33:19.644Z,101176.44
2023-04-22T08:35:48.998Z,101180.09
2023-04-22T08:38:16.735Z,101176.25
2023-04-22T08:40:44.530Z,101178.19
2023-04-22T08:43:13.322Z,101167.94
2023-04-22T08:45:41.705Z,101169.50
2023-04-22T08:48:10.413Z,101159.41
2023-04-22T08:50:39.564Z,101168.41
2023-04-22T08:53:08.663Z,101170.91
2023-04-22T08:55:37.360Z,101166.72
2023-04-22T08:58:06.244Z,101156.03
2023-04-22T09:00:35.684Z,101160.50
2023-04-22T09:03:07.072Z,101158.94
2023-04-22T09:05:37.575Z,101164.72
2023-04-22T09:08:05.838Z,101151.41
2023-04-22T09:10:38.240Z,101149.75
2023-04-22T09:13:07.598Z,101135.09
2023-04-22T09:15:35.300Z,101138.28
2023-04-22T09:18:03.766Z,101134.59
2023-04-22T09:20:31.677Z,101134.81
2023-04-22T09:23:03.870Z,101129.56
2023-04-22T09:25:34.187Z,101128.50
2023-04-22T09:28:03.341Z,101125.03
2023-04-22T09:30:32.710Z,101138.84
2023-04-22T09:33:01.865Z,101127.91
2023-04-22T09:35:31.134Z,101123.69
2023-04-22T09:38:00.600Z,101107.50
2023-04-22T09:40:29.281Z,101108.78
2023-04-22T09:42:58.723Z,101100.34
2023-04-22T09:45:30.039Z,101092.88
2023-04-22T09:48:00.741Z,101091.56
2023-04-22T09:50:29.686Z,101090.59
2023-04-22T09:52:59.841Z,101080.69
2023-04-22T09:55:28.869Z,101091.63
2023-04-22T09:57:57.982Z,101067.84
2023-04-22T10:00:29.766Z,101070.38
2023-04-22T10:02:57.592Z,101068.84
2023-04-22T10:05:25.694Z,101070.19
2023-04-22T10:07:53.907Z,101063.13
2023-04-22T10:10:21.870Z,101057.66
2023-04-22T10:12:49.931Z,101047.44
2023-04-22T10:15:17.748Z,101047.75
2023-04-22T10:17:47.766Z,101036.19
2023-04-22T10:20:18.712Z,101025.63
2023-04-22T10:22:47.586Z,101017.66
2023-04-22T10:25:21.944Z,101031.09
2023-04-22T10:27:55.521Z,101025.13
2023-04-22T10:30:30.651Z,101018.50
2023-04-22T10:33:39.504Z,101018.50
2023-04-22T10:36:12.317Z,101025.34
2023-04-22T10:38:42.483Z,101037.13
2023-04-22T10:41:16.247Z,101019.38
2023-04-22T10:43:45.842Z,101015.09
2023-04-22T10:46:50.865Z,101019.97
2023-04-22T10:49:21.936Z,101015.81
2023-04-22T10:51:51.456Z,101016.00
2023-04-22T10:54:56.294Z,101021.66
2023-04-22T10:57:24.188Z,101018.53
2023-04-22T10:59:54.449Z,101016.00
2023-04-22T11:02:23.668Z,100999.44
2023-04-22T11:04:54.410Z,101003.38
2023-04-22T11:07:34.290Z,100985.13
2023-04-22T11:10:05.281Z,100999.31
2023-04-22T11:12:45.943Z,100998.66
2023-04-22T11:15:16.204Z,100998.69
2023-04-22T11:17:45.445Z,100989.31
2023-04-22T11:20:17.449Z,100978.13
2023-04-22T11:22:47.378Z,100974.19
2023-04-22T11:25:16.085Z,100970.03
2023-04-22T11:27:44.493Z,100978.34
2023-04-22T11:30:14.933Z,100983.84
2023-04-22T11:32:45.161Z,100977.16
2023-04-22T11:35:16.423Z,100987.34
2023-04-22T11:37:45.782Z,100970.25
2023-04-22T11:40:28.903Z,100971.31
2023-04-22T11:42:59.101Z,100970.81
2023-04-22T11:45:28.321Z,100971.16
2023-04-22T11:47:56.624Z,100968.34
2023-04-22T11:50:27.068Z,100949.91
2023-04-22T11:52:56.063Z,100959.22
2023-04-22T11:55:27.284Z,100951.16
2023-04-22T11:57:57.283Z,100958.56
2023-04-22T12:00:29.380Z,100949.94
2023-04-22T12:03:01.706Z,100946.31
2023-04-22T12:05:48.921Z,100931.50
2023-04-22T12:08:18.625Z,100941.66
2023-04-22T12:10:48.489Z,100939.00
2023-04-22T12:13:19.882Z,100933.53
2023-04-22T12:15:47.776Z,100927.69
2023-04-22T12:18:15.874Z,100922.84
2023-04-22T12:20:43.902Z,100936.44
2023-04-22T12:23:17.053Z,100935.22
2023-04-22T12:25:45.140Z,100930.16
2023-04-22T12:28:14.247Z,100928.75
2023-04-22T12:30:42.350Z,100936.25
2023-04-22T12:33:10.670Z,100935.06
2023-04-22T12:35:38.391Z,100919.03
2023-04-22T12:38:06.134Z,100916.69
2023-04-22T12:40:35.235Z,100911.50
2023-04-22T12:43:05.970Z,100909.31
2023-04-22T12:45:33.911Z,100905.41
2023-04-22T12:48:01.840Z,100901.84
2023-04-22T12:50:29.643Z,100910.03
2023-04-22T12:52:57.320Z,100908.34
2023-04-22T12:55:25.283Z,100895.19
2023-04-22T12:57:54.585Z,100899.38
2023-04-22T13:00:22.839Z,100868.38
2023-04-22T13:02:51.120Z,100875.22
2023-04-22T13:05:19.985Z,100866.41
2023-04-22T13:07:59.577Z,100869.06
2023-04-22T13:10:31.530Z,100878.91
2023-04-22T13:13:15.967Z,100876.75
2023-04-22T13:15:45.244Z,100867.63
2023-04-22T13:18:13.059Z,100852.13
2023-04-22T13:20:41.779Z,100845.38
2023-04-22T13:23:09.710Z,100845.69
2023-04-22T13:25:37.748Z,100846.25
2023-04-22T13:28:06.978Z,100840.75
2023-04-22T13:30:34.783Z,100838.41
2023-04-22T13:33:02.619Z,100861.53
2023-04-22T13:35:30.432Z,100843.84
2023-04-22T13:37:58.148Z,100831.69
2023-04-22T13:40:26.662Z,100833.56
2023-04-22T13:42:54.448Z,100831.81
2023-04-22T13:45:23.710Z,100836.53
2023-04-22T13:47:52.201Z,100830.84
2023-04-22T13:50:20.051Z,100824.53
2023-04-22T13:52:49.359Z,100832.09
2023-04-22T13:55:17.119Z,100822.81
2023-04-22T13:57:45.487Z,100828.28
2023-04-22T14:00:14.003Z,100820.13
2023-04-22T14:02:43.252Z,100819.66
2023-04-22T14:05:11.429Z,100813.66
2023-04-22T14:07:39.114Z,100809.75
2023-04-22T14:10:08.615Z,100803.59
2023-04-22T14:12:36.388Z,100793.19
2023-04-22T14:15:04.284Z,100810.38
2023-04-22T14:17:32.075Z,100785.44
2023-04-22T14:20:01.192Z,100796.06
2023-04-22T14:22:28.970Z,100801.84
2023-04-22T14:24:56.878Z,100789.41
2023-04-22T14:27:24.670Z,100785.84
2023-04-22T14:29:53.261Z,100780.44
2023-04-22T14:32:21.803Z,100775.75
2023-04-22T14:34:49.614Z,100769.22
2023-04-22T14:37:18.783Z,100763.50
2023-04-22T14:39:46.559Z,100753.44
2023-04-22T14:42:15.564Z,100765.88
2023-04-22T14:44:43.777Z,100765.13
2023-04-22T14:47:11.507Z,100760.72
2023-04-22T14:49:39.423Z,100759.94
2023-04-22T14:52:07.689Z,100753.56
2023-04-22T14:54:36.783Z,100755.25
2023-04-22T14:57:04.611Z,100752.84
2023-04-22T14:59:32.302Z,100742.22
2023-04-22T15:02:00.807Z,100743.28
2023-04-22T15:04:28.730Z,100725.59
2023-04-22T15:06:57.659Z,100738.53
2023-04-22T15:09:25.530Z,100744.78
2023-04-22T15:11:56.427Z,100738.25
2023-04-22T15:14:24.171Z,100737.69
2023-04-22T15:16:52.052Z,100726.81
2023-04-22T15:19:19.760Z,100717.34
2023-04-22T15:21:47.919Z,100721.75
2023-04-22T15:24:15.637Z,100720.94
2023-04-22T15:26:43.395Z,100717.97
2023-04-22T15:29:12.602Z,100714.59
2023-04-22T15:31:40.592Z,100709.50
2023-04-22T15:34:08.390Z,100702.66
2023-04-22T15:36:36.145Z,100701.28
2023-04-22T15:39:05.433Z,100706.34
2023-04-22T15:41:34.026Z,100699.31
2023-04-22T15:44:01.726Z,100701.94
2023-04-22T15:46:32.942Z,100707.59
2023-04-22T15:49:01.914Z,100711.72
2023-04-22T15:51:30.070Z,100709.16
2023-04-22T15:53:58.545Z,100717.56
2023-04-22T15:56:26.865Z,100704.72
2023-04-22T15:58:54.581Z,100713.34
2023-04-22T16:01:22.485Z,100709.13
2023-04-22T16:03:51.789Z,100707.94
2023-04-22T16:06:19.989Z,100705.59
2023-04-22T16:08:47.941Z,100711.16
2023-04-22T16:11:16.488Z,100715.28
2023-04-22T16:13:44.361Z,100706.56
2023-04-22T16:16:12.142Z,100703.75
2023-04-22T16:18:42.810Z,100717.47
2023-04-22T16:21:13.276Z,100714.75
2023-04-22T16:23:41.075Z,100710.34
2023-04-22T16:26:08.816Z,100713.34
2023-04-22T16:28:36.543Z,100705.59
2023-04-22T16:31:04.705Z,100702.03
2023-04-22T16:33:34.326Z,100707.06
2023-04-22T16:36:02.080Z,100703.44
2023-04-22T16:38:31.193Z,100692.97
2023-04-22T16:40:58.914Z,100682.47
2023-04-22T16:43:26.689Z,100693.78
2023-04-22T16:45:54.483Z,100687.28
2023-04-22T16:48:22.258Z,100679.75
2023-04-22T16:50:51.365Z,100680.75
2023-04-22T16:53:19.141Z,100675.16
2023-04-22T16:55:48.219Z,100661.03
2023-04-22T16:58:16.141Z,100658.44
2023-04-22T17:00:45.240Z,100661.56
2023-04-22T17:03:14.430Z,100658.88
2023-04-22T17:05:42.287Z,100664.25
2023-04-22T17:08:10.151Z,100656.44
2023-04-22T17:10:41.478Z,100660.88
2023-04-22T17:13:10.593Z,100661.31
2023-04-22T17:15:38.365Z,100654.50
2023-04-22T17:18:07.820Z,100656.91
2023-04-22T17:20:35.866Z,100656.28
2023-04-22T17:23:04.525Z,100660.00
2023-04-22T17:25:32.429Z,100644.59
2023-04-22T17:28:00.144Z,100661.50
2023-04-22T17:30:29.308Z,100659.59
2023-04-22T17:32:57.484Z,100656.84
2023-04-22T17:35:25.416Z,100662.09
2023-04-22T17:37:53.694Z,100660.28
2023-04-22T17:40:21.915Z,100657.19
2023-04-22T17:42:49.669Z,100662.13
2023-04-22T17:45:17.434Z,100651.78
2023-04-22T17:47:48.410Z,100655.78
2023-04-22T17:50:16.237Z,100664.16
2023-04-22T17:52:44.375Z,100655.22
2023-04-22T17:55:12.094Z,100659.19
2023-04-22T17:57:39.806Z,100658.03
2023-04-22T18:00:10.176Z,100661.81
2023-04-22T18:02:38.099Z,100666.16
2023-04-22T18:05:08.092Z,100655.00
2023-04-22T18:07:36.228Z,100659.19
2023-04-22T18:10:03.993Z,100663.19
2023-04-22T18:12:31.892Z,100657.03
2023-04-22T18:14:59.802Z,100667.34
2023-04-22T18:17:27.545Z,100664.00
2023-04-22T18:20:02.883Z,100662.75
2023-04-22T18:22:39.251Z,100669.81
2023-04-22T18:25:07.557Z,100667.53
2023-04-22T18:27:35.258Z,100670.84
2023-04-22T18:30:03.064Z,100660.72
2023-04-22T18:32:31.008Z,100661.94
2023-04-22T18:34:58.786Z,100664.25
2023-04-22T18:37:30.639Z,100664.06
2023-04-22T18:39:59.726Z,100673.75
2023-04-22T18:42:27.438Z,100672.94
2023-04-22T18:44:55.301Z,100669.22
2023-04-22T18:47:23.083Z,100668.78
2023-04-22T18:49:50.923Z,100678.72
2023-04-22T18:52:18.786Z,100671.28
2023-04-22T18:54:46.633Z,100673.31
2023-04-22T18:57:15.777Z,100669.81
2023-04-22T18:59:43.512Z,100678.47
2023-04-22T19:02:13.461Z,100685.53
2023-04-22T19:04:41.508Z,100677.16
2023-04-22T19:07:09.787Z,100677.22
2023-04-22T19:09:37.564Z,100676.59
2023-04-22T19:12:06.451Z,100673.72
2023-04-22T19:14:35.562Z,100665.53
2023-04-22T19:17:03.281Z,100669.56
2023-04-22T19:19:30.981Z,100673.59
2023-04-22T19:21:58.725Z,100665.84
2023-04-22T19:24:32.014Z,100669.06
2023-04-22T19:27:01.781Z,100670.75
2023-04-22T19:29:29.733Z,100663.72
2023-04-22T19:31:58.884Z,100665.28
2023-04-22T19:34:27.355Z,100664.50
2023-04-22T19:36:55.534Z,100672.50
2023-04-22T19:39:23.233Z,100658.56
2023-04-22T19:41:51.143Z,100652.31
2023-04-22T19:44:19.056Z,100655.00
2023-04-22T19:46:46.816Z,100649.00
2023-04-22T19:49:17.011Z,100655.34
2023-04-22T19:51:46.209Z,100651.06
2023-04-22T19:54:14.371Z,100644.56
2023-04-22T19:56:42.370Z,100639.44
2023-04-22T19:59:10.266Z,100639.94
2023-04-22T20:01:38.590Z,100634.97
2023-04-22T20:04:06.917Z,100629.59
2023-04-22T20:06:36.612Z,100627.06
2023-04-22T20:09:05.330Z,100630.78
2023-04-22T20:11:33.277Z,100623.16
2023-04-22T20:14:02.004Z,100622.72
2023-04-22T20:16:30.453Z,100623.53
2023-04-22T20:18:58.387Z,100624.47
2023-04-22T20:21:26.652Z,100623.47
2023-04-22T20:23:57.600Z,100622.75
2023-04-22T20:26:26.252Z,100618.81
2023-04-22T20:28:54.242Z,100615.81
2023-04-22T20:31:23.370Z,100614.41
2023-04-22T20:33:51.768Z,100621.28
2023-04-22T20:36:22.269Z,100611.00
2023-04-22T20:38:51.003Z,100617.72
2023-04-22T20:41:20.729Z,100613.00
2023-04-22T20:43:48.497Z,100607.13
2023-04-22T20:46:16.779Z,100608.31
2023-04-22T20:48:44.655Z,100612.94
2023-04-22T20:51:12.655Z,100608.88
2023-04-22T20:53:41.243Z,100608.34
2023-04-22T20:56:08.994Z,100597.16
2023-04-22T20:58:38.098Z,100604.09
2023-04-22T21:01:06.005Z,100593.78
2023-04-22T21:03:34.830Z,100601.69
2023-04-22T21:06:03.590Z,100593.56
2023-04-22T21:08:34.802Z,100592.56
2023-04-22T21:11:03.024Z,100593.91
2023-04-22T21:13:31.181Z,100592.69
2023-04-22T21:16:04.058Z,100595.66
2023-04-22T21:18:33.896Z,100578.31
2023-04-22T21:21:04.488Z,100592.50
2023-04-22T21:23:32.857Z,100589.03
2023-04-22T21:26:02.508Z,100575.28
2023-04-22T21:28:30.872Z,100579.50
2023-04-22T21:31:00.947Z,100573.50
2023-04-22T21:33:28.753Z,100574.22
2023-04-22T21:35:56.584Z,100573.38
2023-04-22T21:38:24.462Z,100565.16
2023-04-22T21:40:52.162Z,100569.53
2023-04-22T21:43:19.902Z,100559.72
2023-04-22T21:45:48.018Z,100561.22
2023-04-22T21:48:17.127Z,100554.91
2023-04-22T21:50:44.831Z,100556.50
2023-04-22T21:53:12.643Z,100559.53
2023-04-22T21:55:40.845Z,100558.97
2023-04-22T21:58:08.578Z,100540.38
2023-04-22T22:00:37.802Z,100546.44
2023-04-22T22:03:06.151Z,100550.91
2023-04-22T22:05:36.018Z,100552.44
2023-04-22T22:08:04.057Z,100546.97
2023-04-22T22:10:31.890Z,100544.28
2023-04-22T22:12:59.692Z,100551.94
2023-04-22T22:15:27.437Z,100548.91
2023-04-22T22:17:55.194Z,100540.69
2023-04-22T22:20:23.875Z,100545.75
2023-04-22T22:22:53.406Z,100543.25
2023-04-22T22:25:21.157Z,100543.69
2023-04-22T22:27:49.368Z,100539.09
2023-04-22T22:30:18.566Z,100543.09
2023-04-22T22:32:46.377Z,100535.66
2023-04-22T22:35:14.603Z,100532.63
2023-04-22T22:37:42.402Z,100534.22
2023-04-22T22:40:13.035Z,100525.31
2023-04-22T22:42:40.813Z,100528.63
2023-04-22T22:45:10.567Z,100527.56
2023-04-22T22:47:39.834Z,100533.84
2023-04-22T22:50:09.069Z,100521.19
2023-04-22T22:52:36.825Z,100520.56
2023-04-22T22:55:04.925Z,100520.91
2023-04-22T22:57:34.019Z,100518.44
2023-04-22T23:00:01.748Z,100519.28
2023-04-22T23:02:29.699Z,100519.00
2023-04-22T23:04:58.121Z,100512.53
2023-04-22T23:07:25.914Z,100509.34
2023-04-22T23:09:53.617Z,100505.28
2023-04-22T23:12:21.341Z,100499.34
2023-04-22T23:14:50.509Z,100502.09
2023-04-22T23:17:18.328Z,100497.97
2023-04-22T23:19:46.583Z,100497.88
2023-04-22T23:22:15.216Z,100491.22
2023-04-22T23:24:43.635Z,100487.22
2023-04-22T23:27:12.093Z,100489.22
2023-04-22T23:29:40.461Z,100488.41
2023-04-22T23:32:12.149Z,100480.94
2023-04-22T23:34:45.653Z,100486.91
2023-04-22T23:37:16.192Z,100482.66
2023-04-22T23:39:44.137Z,100481.56
2023-04-22T23:42:11.859Z,100485.25
2023-04-22T23:44:39.805Z,100486.31
2023-04-22T23:47:09.180Z,100498.75
2023-04-22T23:49:37.014Z,100482.78
2023-04-22T23:52:04.819Z,100473.50
2023-04-22T23:54:33.068Z,100466.81
2023-04-22T23:57:01.414Z,100474.66
2023-04-22T23:59:29.944Z,100474.38
